createdAt,value
2018-07-04T00:02:00.917Z,18.43
2018-07-04T00:04:55.829Z,18.20
2018-07-04T00:07:50.906Z,18.09
2018-07-04T00:10:46.461Z,17.94
2018-07-04T00:13:42.386Z,17.83
2018-07-04T00:16:37.701Z,17.89
2018-07-04T00:19:34.483Z,17.84
2018-07-04T00:22:29.927Z,17.80
2018-07-04T00:25:25.457Z,17.72
2018-07-04T00:28:23.226Z,17.67
2018-07-04T00:31:18.910Z,17.68
2018-07-04T00:34:14.042Z,17.76
2018-07-04T00:37:09.120Z,17.79
2018-07-04T00:40:04.302Z,17.72
2018-07-04T00:42:59.590Z,17.81
2018-07-04T00:45:55.267Z,17.85
2018-07-04T00:48:50.209Z,18.03
2018-07-04T00:51:45.478Z,18.04
2018-07-04T00:54:40.734Z,18.06
2018-07-04T00:57:36.971Z,18.16
2018-07-04T01:00:33.617Z,18.38
2018-07-04T01:03:28.806Z,18.55
2018-07-04T01:06:23.730Z,18.42
2018-07-04T01:09:20.217Z,18.47
2018-07-04T01:12:15.370Z,18.38
2018-07-04T01:15:10.526Z,18.49
2018-07-04T01:18:06.705Z,18.40
2018-07-04T01:21:07.152Z,18.49
2018-07-04T01:24:02.026Z,18.32
2018-07-04T01:26:57.336Z,18.19
2018-07-04T01:29:52.429Z,18.30
2018-07-04T01:32:47.355Z,18.21
2018-07-04T01:35:42.657Z,18.18
2018-07-04T01:38:37.557Z,18.42
2018-07-04T01:41:33.899Z,18.46
2018-07-04T01:44:29.253Z,18.34
2018-07-04T01:47:24.286Z,18.17
2018-07-04T01:50:20.803Z,18.19
2018-07-04T01:53:15.954Z,18.26
2018-07-04T01:56:10.856Z,18.26
2018-07-04T01:59:05.717Z,18.21
2018-07-04T02:02:00.871Z,18.02
2018-07-04T02:04:55.725Z,17.88
2018-07-04T02:07:51.058Z,18.05
2018-07-04T02:10:46.444Z,18.13
2018-07-04T02:13:41.288Z,17.94
2018-07-04T02:16:36.409Z,17.83
2018-07-04T02:19:31.505Z,17.83
2018-07-04T02:22:26.651Z,17.82
2018-07-04T02:25:21.527Z,17.89
2018-07-04T02:28:16.798Z,17.95
2018-07-04T02:31:11.941Z,18.00
2018-07-04T02:34:06.589Z,17.85
2018-07-04T02:37:02.401Z,17.76
2018-07-04T02:39:57.304Z,17.86
2018-07-04T02:42:52.126Z,17.81
2018-07-04T02:45:47.362Z,17.90
2018-07-04T02:48:42.227Z,18.10
2018-07-04T02:51:36.963Z,18.27
2018-07-04T02:54:32.912Z,18.14
2018-07-04T02:57:27.790Z,18.07
2018-07-04T03:00:23.065Z,18.05
2018-07-04T03:03:18.393Z,17.98
2018-07-04T03:06:13.316Z,17.91
2018-07-04T03:09:08.209Z,17.82
2018-07-04T03:12:04.923Z,17.72
2018-07-04T03:15:00.047Z,17.79
2018-07-04T03:17:57.412Z,17.62
2018-07-04T03:20:53.049Z,17.41
2018-07-04T03:23:48.063Z,17.23
2018-07-04T03:26:42.911Z,17.15
2018-07-04T03:29:39.074Z,17.06
2018-07-04T03:32:34.148Z,17.08
2018-07-04T03:35:29.081Z,17.06
2018-07-04T03:38:24.153Z,16.96
2018-07-04T03:41:19.276Z,16.81
2018-07-04T03:44:14.454Z,16.70
2018-07-04T03:47:10.185Z,16.72
2018-07-04T03:50:06.930Z,16.62
2018-07-04T03:53:04.611Z,16.69
2018-07-04T03:56:04.128Z,16.60
2018-07-04T03:58:59.732Z,16.50
2018-07-04T04:01:54.942Z,16.49
2018-07-04T04:04:50.090Z,16.49
2018-07-04T04:07:45.553Z,16.47
2018-07-04T04:10:41.324Z,16.51
2018-07-04T04:13:36.826Z,16.61
2018-07-04T04:16:31.724Z,16.72
2018-07-04T04:19:32.136Z,16.84
2018-07-04T04:22:26.968Z,16.85
2018-07-04T04:25:22.955Z,17.13
2018-07-04T04:28:18.108Z,17.42
2018-07-04T04:31:13.833Z,17.47
2018-07-04T04:34:09.293Z,17.49
2018-07-04T04:37:06.769Z,17.50
2018-07-04T04:40:02.635Z,17.54
2018-07-04T04:42:58.956Z,17.54
2018-07-04T04:45:55.462Z,17.59
2018-07-04T04:48:50.805Z,17.63
2018-07-04T04:51:45.891Z,17.69
2018-07-04T04:54:43.308Z,17.94
2018-07-04T04:57:39.294Z,17.99
2018-07-04T05:00:35.224Z,18.10
2018-07-04T05:03:31.318Z,18.22
2018-07-04T05:06:27.278Z,18.35
2018-07-04T05:09:23.033Z,18.49
2018-07-04T05:12:18.518Z,18.62
2018-07-04T05:15:14.718Z,18.73
2018-07-04T05:18:09.874Z,18.82
2018-07-04T05:21:05.182Z,19.02
2018-07-04T05:24:00.739Z,18.97
2018-07-04T05:26:56.609Z,19.04
2018-07-04T05:29:51.887Z,19.22
2018-07-04T05:32:48.251Z,19.40
2018-07-04T05:35:43.483Z,19.59
2018-07-04T05:38:38.347Z,19.72
2018-07-04T05:41:33.273Z,19.91
2018-07-04T05:44:29.690Z,20.01
2018-07-04T05:48:45.007Z,20.16
2018-07-04T05:51:39.913Z,20.13
2018-07-04T05:54:39.073Z,20.35
2018-07-04T05:57:34.119Z,20.47
2018-07-04T06:00:30.504Z,20.62
2018-07-04T06:03:26.456Z,20.73
2018-07-04T06:06:22.145Z,21.06
2018-07-04T06:09:16.888Z,21.22
2018-07-04T06:12:12.977Z,21.38
2018-07-04T06:15:13.623Z,21.66
2018-07-04T06:18:14.646Z,21.91
2018-07-04T06:21:10.332Z,22.17
2018-07-04T06:24:05.212Z,22.44
2018-07-04T06:27:00.208Z,22.72
2018-07-04T06:29:55.606Z,23.04
2018-07-04T06:32:51.367Z,23.43
2018-07-04T06:35:46.325Z,23.79
2018-07-04T06:38:17.905Z,24.17
2018-07-04T06:40:48.960Z,24.45
2018-07-04T06:43:20.205Z,24.73
2018-07-04T06:45:51.821Z,25.03
2018-07-04T06:48:25.658Z,25.23
2018-07-04T06:50:57.528Z,25.42
2018-07-04T06:53:30.842Z,25.60
2018-07-04T06:56:02.672Z,25.69
2018-07-04T06:58:34.513Z,25.82
2018-07-04T07:01:04.727Z,25.93
2018-07-04T07:03:59.662Z,26.12
2018-07-04T07:06:54.944Z,26.25
2018-07-04T07:09:50.413Z,26.36
2018-07-04T07:12:46.268Z,26.39
2018-07-04T07:15:43.665Z,26.59
2018-07-04T07:18:39.189Z,26.63
2018-07-04T07:21:35.233Z,26.78
2018-07-04T07:24:30.891Z,26.85
2018-07-04T07:27:30.407Z,26.62
2018-07-04T07:30:28.329Z,26.71
2018-07-04T07:33:23.394Z,26.79
2018-07-04T07:36:18.124Z,26.90
2018-07-04T07:39:13.608Z,27.07
2018-07-04T07:42:08.729Z,27.35
2018-07-04T07:45:03.845Z,27.70
2018-07-04T07:47:58.533Z,28.10
2018-07-04T07:50:57.701Z,28.51
2018-07-04T07:53:53.369Z,28.90
2018-07-04T07:56:49.133Z,29.40
2018-07-04T07:59:45.720Z,29.70
2018-07-04T08:02:42.226Z,30.58
2018-07-04T08:05:37.434Z,31.73
2018-07-04T08:08:33.253Z,32.33
2018-07-04T08:11:29.599Z,31.76
2018-07-04T08:14:27.966Z,30.85
2018-07-04T08:17:24.334Z,30.63
2018-07-04T08:20:23.518Z,29.70
2018-07-04T08:23:18.369Z,29.87
2018-07-04T08:26:13.565Z,30.11
2018-07-04T08:29:10.193Z,30.57
2018-07-04T08:32:06.027Z,30.76
2018-07-04T08:35:02.193Z,31.19
2018-07-04T08:37:58.677Z,32.24
2018-07-04T08:40:54.257Z,32.04
2018-07-04T08:43:50.446Z,30.93
2018-07-04T08:46:45.887Z,29.97
2018-07-04T08:49:40.605Z,29.89
2018-07-04T08:52:38.239Z,29.71
2018-07-04T08:55:37.462Z,29.18
2018-07-04T08:58:34.066Z,29.03
2018-07-04T09:01:30.553Z,28.66
2018-07-04T09:04:25.497Z,28.48
2018-07-04T09:07:22.328Z,28.73
2018-07-04T09:10:19.702Z,28.63
2018-07-04T09:13:17.411Z,28.48
2018-07-04T09:16:12.439Z,28.59
2018-07-04T09:19:07.733Z,28.60
2018-07-04T09:22:02.685Z,28.41
2018-07-04T09:24:58.591Z,28.37
2018-07-04T09:27:54.856Z,28.28
2018-07-04T09:30:51.046Z,28.45
2018-07-04T09:33:46.630Z,28.10
2018-07-04T09:36:44.313Z,28.09
2018-07-04T09:39:39.650Z,28.02
2018-07-04T09:42:36.572Z,28.15
2018-07-04T09:45:35.493Z,28.08
2018-07-04T09:48:31.508Z,27.83
2018-07-04T09:51:26.832Z,27.86
2018-07-04T09:54:23.290Z,27.75
2018-07-04T09:57:19.933Z,27.62
2018-07-04T10:00:26.447Z,27.69
2018-07-04T10:03:21.617Z,27.83
2018-07-04T10:06:19.553Z,27.82
2018-07-04T10:09:15.313Z,27.46
2018-07-04T10:12:11.002Z,27.17
2018-07-04T10:15:08.808Z,27.27
2018-07-04T10:18:04.408Z,27.23
2018-07-04T10:20:58.958Z,27.49
2018-07-04T10:23:54.312Z,27.61
2018-07-04T10:26:50.443Z,27.83
2018-07-04T10:29:46.211Z,27.98
2018-07-04T10:32:42.243Z,28.46
2018-07-04T10:35:37.839Z,28.77
2018-07-04T10:38:35.529Z,29.01
2018-07-04T10:44:01.217Z,29.99
2018-07-04T10:46:58.235Z,29.80
2018-07-04T10:49:53.694Z,29.87
2018-07-04T10:53:09.826Z,29.90
2018-07-04T10:56:07.228Z,29.86
2018-07-04T10:59:02.230Z,30.06
2018-07-04T11:01:58.438Z,30.20
2018-07-04T11:04:55.340Z,30.31
2018-07-04T11:07:53.423Z,30.37
2018-07-04T11:10:50.663Z,30.85
2018-07-04T11:13:46.782Z,30.62
2018-07-04T11:16:42.597Z,30.29
2018-07-04T11:19:38.899Z,29.81
2018-07-04T11:22:34.030Z,29.68
2018-07-04T11:25:28.905Z,29.15
2018-07-04T11:28:26.825Z,28.61
2018-07-04T11:31:21.638Z,28.71
2018-07-04T11:34:17.502Z,28.84
2018-07-04T11:37:13.058Z,28.80
2018-07-04T11:40:08.864Z,29.05
2018-07-04T11:43:04.636Z,29.77
2018-07-04T11:45:58.767Z,30.34
2018-07-04T11:48:29.743Z,30.80
2018-07-04T11:51:01.496Z,30.90
2018-07-04T11:53:34.062Z,30.85
2018-07-04T11:56:04.120Z,30.95
2018-07-04T11:58:35.137Z,31.07
2018-07-04T12:01:05.390Z,31.13
2018-07-04T12:04:02.277Z,30.63
2018-07-04T12:06:58.208Z,30.05
2018-07-04T12:09:28.573Z,29.98
2018-07-04T12:11:59.433Z,30.09
2018-07-04T12:14:29.858Z,29.99
2018-07-04T12:17:01.104Z,30.24
2018-07-04T12:19:32.297Z,31.01
2018-07-04T12:22:02.881Z,31.35
2018-07-04T12:24:33.453Z,31.34
2018-07-04T12:27:05.752Z,31.50
2018-07-04T12:29:37.769Z,31.94
2018-07-04T12:32:12.406Z,32.05
2018-07-04T12:34:58.510Z,32.12
2018-07-04T12:37:30.614Z,32.25
2018-07-04T12:40:11.799Z,32.21
2018-07-04T12:42:43.684Z,32.05
2018-07-04T12:45:15.441Z,31.78
2018-07-04T12:47:49.628Z,31.27
2018-07-04T12:50:42.222Z,30.97
2018-07-04T12:53:13.089Z,31.37
2018-07-04T12:56:08.294Z,31.61
2018-07-04T12:59:05.217Z,31.65
2018-07-04T13:02:01.865Z,31.64
2018-07-04T13:04:57.597Z,30.89
2018-07-04T13:07:52.424Z,30.63
2018-07-04T13:10:48.896Z,30.49
2018-07-04T13:13:45.344Z,30.41
2018-07-04T13:16:43.252Z,30.36
2018-07-04T13:19:42.622Z,29.70
2018-07-04T13:22:40.773Z,29.45
2018-07-04T13:25:36.633Z,29.16
2018-07-04T13:28:33.145Z,29.54
2018-07-04T13:31:29.011Z,29.64
2018-07-04T13:34:24.528Z,29.49
2018-07-04T13:37:22.387Z,29.26
2018-07-04T13:40:18.707Z,29.44
2018-07-04T13:43:14.507Z,29.46
2018-07-04T13:46:10.347Z,29.89
2018-07-04T13:49:05.462Z,30.01
2018-07-04T13:52:02.162Z,29.54
2018-07-04T13:54:57.956Z,29.28
2018-07-04T13:57:52.782Z,29.14
2018-07-04T14:00:52.633Z,28.89
2018-07-04T14:03:49.272Z,28.70
2018-07-04T14:06:44.269Z,28.83
2018-07-04T14:09:41.323Z,28.69
2018-07-04T14:12:37.420Z,28.66
2018-07-04T14:15:32.955Z,28.29
2018-07-04T14:18:29.728Z,28.61
2018-07-04T14:24:35.531Z,28.67
2018-07-04T14:27:30.779Z,28.58
2018-07-04T14:30:26.150Z,28.86
2018-07-04T14:33:21.050Z,29.11
2018-07-04T14:36:19.262Z,28.90
2018-07-04T14:39:14.333Z,28.90
2018-07-04T14:42:11.543Z,28.60
2018-07-04T14:45:08.312Z,28.64
2018-07-04T14:48:03.557Z,28.57
2018-07-04T14:53:55.949Z,28.60
2018-07-04T14:56:51.722Z,28.33
2018-07-04T14:59:47.880Z,28.28
2018-07-04T15:02:45.090Z,28.49
2018-07-04T15:05:41.443Z,28.65
2018-07-04T15:08:42.712Z,28.72
2018-07-04T15:11:41.616Z,28.35
2018-07-04T15:14:38.348Z,28.61
2018-07-04T15:17:33.702Z,28.62
2018-07-04T15:20:29.285Z,28.53
2018-07-04T15:23:26.487Z,28.50
2018-07-04T15:26:21.370Z,28.33
2018-07-04T15:29:18.168Z,28.34
2018-07-04T15:32:16.121Z,28.49
2018-07-04T15:35:12.400Z,28.70
2018-07-04T15:38:07.293Z,28.89
2018-07-04T15:41:02.853Z,28.39
2018-07-04T15:43:59.220Z,28.47
2018-07-04T15:46:59.414Z,28.81
2018-07-04T15:49:55.377Z,28.89
2018-07-04T15:52:51.463Z,29.14
2018-07-04T15:55:47.470Z,28.97
2018-07-04T15:58:43.190Z,28.62
2018-07-04T16:01:38.394Z,28.46
2018-07-04T16:04:34.012Z,28.44
2018-07-04T16:07:29.669Z,28.28
2018-07-04T16:10:25.615Z,28.29
2018-07-04T16:13:24.664Z,28.34
2018-07-04T16:16:23.448Z,28.13
2018-07-04T16:19:29.573Z,28.04
2018-07-04T16:22:23.632Z,27.85
2018-07-04T16:25:22.515Z,27.96
2018-07-04T16:28:18.277Z,28.16
2018-07-04T16:31:15.065Z,28.12
2018-07-04T16:34:12.284Z,28.18
2018-07-04T16:37:10.289Z,28.12
2018-07-04T16:40:08.464Z,28.11
2018-07-04T16:43:07.522Z,28.07
2018-07-04T16:46:05.232Z,27.99
2018-07-04T16:49:02.405Z,28.01
2018-07-04T16:51:59.795Z,28.10
2018-07-04T16:54:59.049Z,28.01
2018-07-04T16:57:55.918Z,27.86
2018-07-04T17:00:55.324Z,27.80
2018-07-04T17:03:57.932Z,27.87
2018-07-04T17:06:53.968Z,27.99
2018-07-04T17:09:49.692Z,28.13
2018-07-04T17:12:45.325Z,28.08
2018-07-04T17:15:42.552Z,28.28
2018-07-04T17:18:38.054Z,28.32
2018-07-04T17:21:33.086Z,28.26
2018-07-04T17:24:30.249Z,28.40
2018-07-04T17:27:26.214Z,28.17
2018-07-04T17:30:23.045Z,27.95
2018-07-04T17:33:19.913Z,27.66
2018-07-04T17:36:15.242Z,27.59
2018-07-04T17:39:10.541Z,27.76
2018-07-04T17:42:07.607Z,27.92
2018-07-04T17:45:04.602Z,27.98
2018-07-04T17:48:07.292Z,27.62
2018-07-04T17:51:09.346Z,27.56
2018-07-04T17:54:08.841Z,27.36
2018-07-04T17:57:05.178Z,27.34
2018-07-04T18:00:04.527Z,27.11
2018-07-04T18:03:04.686Z,27.01
2018-07-04T18:06:04.862Z,27.00
2018-07-04T18:09:03.363Z,26.98
2018-07-04T18:12:00.065Z,27.01
2018-07-04T18:14:57.019Z,27.20
2018-07-04T18:17:53.512Z,27.45
2018-07-04T18:21:22.469Z,27.90
2018-07-04T18:24:17.518Z,27.88
2018-07-04T18:27:12.782Z,27.82
2018-07-04T18:30:09.311Z,27.78
2018-07-04T18:33:07.604Z,27.64
2018-07-04T18:36:06.188Z,27.55
2018-07-04T18:39:04.922Z,27.42
2018-07-04T18:42:02.789Z,27.20
2018-07-04T18:44:58.204Z,27.03
2018-07-04T18:48:00.242Z,26.88
2018-07-04T18:50:56.339Z,26.77
2018-07-04T18:53:53.263Z,26.69
2018-07-04T18:56:49.056Z,26.55
2018-07-04T18:59:43.829Z,26.43
2018-07-04T19:02:39.474Z,26.26
2018-07-04T19:05:50.673Z,26.12
2018-07-04T19:08:47.024Z,25.99
2018-07-04T19:11:44.723Z,25.97
2018-07-04T19:14:40.604Z,25.93
2018-07-04T19:17:37.007Z,25.79
2018-07-04T19:20:35.493Z,25.71
2018-07-04T19:23:31.456Z,25.60
2018-07-04T19:26:27.374Z,25.51
2018-07-04T19:29:24.062Z,25.39
2018-07-04T19:32:20.009Z,25.23
2018-07-04T19:35:16.601Z,25.14
2018-07-04T19:38:13.773Z,25.06
2018-07-04T19:41:10.042Z,24.95
2018-07-04T19:44:05.818Z,24.85
2018-07-04T19:47:04.491Z,24.75
2018-07-04T19:50:02.543Z,24.63
2018-07-04T19:52:58.315Z,24.53
2018-07-04T19:55:54.576Z,24.42
2018-07-04T19:58:50.923Z,24.30
2018-07-04T20:01:47.864Z,24.18
2018-07-04T20:04:47.155Z,24.08
2018-07-04T20:07:45.985Z,23.98
2018-07-04T20:10:41.275Z,23.92
2018-07-04T20:13:40.440Z,23.81
2018-07-04T20:16:36.857Z,23.68
2018-07-04T20:19:39.694Z,23.60
2018-07-04T20:22:41.166Z,23.45
2018-07-04T20:25:36.158Z,23.30
2018-07-04T20:28:35.240Z,23.25
2018-07-04T20:31:31.249Z,23.19
2018-07-04T20:35:49.214Z,23.12
2018-07-04T20:39:06.783Z,23.08
2018-07-04T20:42:08.400Z,22.91
2018-07-04T20:45:06.066Z,22.73
2018-07-04T20:48:03.011Z,22.53
2018-07-04T20:51:06.556Z,22.37
2018-07-04T20:54:08.823Z,22.21
2018-07-04T20:57:12.011Z,22.14
2018-07-04T21:00:15.611Z,22.03
2018-07-04T21:03:17.443Z,21.91
2018-07-04T21:06:22.414Z,21.75
2018-07-04T21:09:19.595Z,21.59
2018-07-04T21:12:14.816Z,21.59
2018-07-04T21:15:19.105Z,21.56
2018-07-04T21:18:17.517Z,21.55
2018-07-04T21:21:16.781Z,21.55
2018-07-04T21:24:15.397Z,21.48
2018-07-04T21:27:17.661Z,21.41
2018-07-04T21:30:24.812Z,21.37
2018-07-04T21:33:21.179Z,21.28
2018-07-04T21:36:16.429Z,21.30
2018-07-04T21:39:14.440Z,21.51
2018-07-04T21:42:10.503Z,21.66
2018-07-04T21:45:08.052Z,21.83
2018-07-04T21:48:03.435Z,22.06
2018-07-04T21:50:59.908Z,22.23
2018-07-04T21:53:58.673Z,22.45
2018-07-04T21:56:55.689Z,22.46
2018-07-04T21:59:56.737Z,22.53
2018-07-04T22:02:51.921Z,22.57
2018-07-04T22:05:50.252Z,22.57
2018-07-04T22:08:50.513Z,22.60
2018-07-04T22:11:52.757Z,22.58
2018-07-04T22:14:53.762Z,22.58
2018-07-04T22:17:52.246Z,22.53
2018-07-04T22:20:47.717Z,22.50
2018-07-04T22:23:51.361Z,22.59
2018-07-04T22:26:47.155Z,22.78
2018-07-04T22:29:43.732Z,22.92
2018-07-04T22:32:59.063Z,22.99
2018-07-04T22:38:12.869Z,22.94
2018-07-04T22:41:39.294Z,22.98
2018-07-04T22:44:52.817Z,22.86
2018-07-04T22:49:27.684Z,22.97
2018-07-04T22:52:44.672Z,22.86
2018-07-04T22:55:47.141Z,22.82
2018-07-04T22:58:42.552Z,22.71
2018-07-04T23:01:38.014Z,22.32
2018-07-04T23:04:36.204Z,21.93
2018-07-04T23:07:34.954Z,21.47
2018-07-04T23:10:31.329Z,21.07
2018-07-04T23:13:27.658Z,20.90
2018-07-04T23:16:24.178Z,20.71
2018-07-04T23:19:19.487Z,20.69
2018-07-04T23:22:31.150Z,20.61
2018-07-04T23:25:26.933Z,20.52
2018-07-04T23:28:24.496Z,20.45
2018-07-04T23:31:21.209Z,20.40
2018-07-04T23:34:16.748Z,20.45
2018-07-04T23:37:14.929Z,20.79
2018-07-04T23:40:10.237Z,21.16
2018-07-04T23:43:10.258Z,21.20
2018-07-04T23:46:11.708Z,21.38
2018-07-04T23:49:07.821Z,21.55
2018-07-04T23:52:12.255Z,21.74
2018-07-04T23:55:10.511Z,21.73
2018-07-04T23:58:05.849Z,21.71
